sensor_id;sensor_type;location;lat;lon;timestamp;pressure;altitude;pressure_sealevel;temperature;humidity
37856;BME280;23694;43.274;26.924;2022-08-21T00:02:22;98260.06;;;24.31;61.17
37856;BME280;23694;43.274;26.924;2022-08-21T00:04:49;98250.78;;;24.34;60.91
37856;BME280;23694;43.274;26.924;2022-08-21T00:07:16;98252.25;;;24.30;60.84
37856;BME280;23694;43.274;26.924;2022-08-21T00:09:43;98255.13;;;24.15;61.15
37856;BME280;23694;43.274;26.924;2022-08-21T00:12:10;98248.34;;;24.06;61.16
37856;BME280;23694;43.274;26.924;2022-08-21T00:14:37;98252.84;;;24.06;61.02
37856;BME280;23694;43.274;26.924;2022-08-21T00:17:04;98249.34;;;23.98;61.04
37856;BME280;23694;43.274;26.924;2022-08-21T00:19:31;98241.53;;;23.97;61.08
37856;BME280;23694;43.274;26.924;2022-08-21T00:21:57;98254.06;;;24.03;60.80
37856;BME280;23694;43.274;26.924;2022-08-21T00:24:24;98256.75;;;23.96;60.44
37856;BME280;23694;43.274;26.924;2022-08-21T00:26:51;98244.22;;;23.97;60.59
37856;BME280;23694;43.274;26.924;2022-08-21T00:29:17;98254.69;;;23.98;60.38
37856;BME280;23694;43.274;26.924;2022-08-21T00:31:44;98249.97;;;24.00;60.25
37856;BME280;23694;43.274;26.924;2022-08-21T00:34:10;98244.81;;;23.99;60.46
37856;BME280;23694;43.274;26.924;2022-08-21T00:36:37;98239.25;;;24.00;60.21
37856;BME280;23694;43.274;26.924;2022-08-21T00:39:05;98235.75;;;24.00;60.57
37856;BME280;23694;43.274;26.924;2022-08-21T00:41:34;98236.19;;;23.97;60.15
37856;BME280;23694;43.274;26.924;2022-08-21T00:44:00;98238.03;;;24.03;60.03
37856;BME280;23694;43.274;26.924;2022-08-21T00:46:27;98236.78;;;24.06;59.85
37856;BME280;23694;43.274;26.924;2022-08-21T00:48:53;98241.97;;;24.07;59.92
37856;BME280;23694;43.274;26.924;2022-08-21T00:51:24;98236.00;;;24.12;59.41
37856;BME280;23694;43.274;26.924;2022-08-21T00:53:56;98228.97;;;24.17;59.51
37856;BME280;23694;43.274;26.924;2022-08-21T00:56:24;98232.47;;;24.04;59.31
37856;BME280;23694;43.274;26.924;2022-08-21T00:58:51;98231.66;;;24.04;59.64
37856;BME280;23694;43.274;26.924;2022-08-21T01:01:18;98236.19;;;24.03;59.49
37856;BME280;23694;43.274;26.924;2022-08-21T01:03:45;98237.00;;;23.91;59.87
37856;BME280;23694;43.274;26.924;2022-08-21T01:06:11;98238.03;;;23.83;60.15
37856;BME280;23694;43.274;26.924;2022-08-21T01:08:37;98238.47;;;23.87;60.59
37856;BME280;23694;43.274;26.924;2022-08-21T01:11:04;98233.53;;;23.84;61.04
37856;BME280;23694;43.274;26.924;2022-08-21T01:13:33;98223.22;;;23.87;61.20
37856;BME280;23694;43.274;26.924;2022-08-21T01:16:02;98226.31;;;23.84;61.80
37856;BME280;23694;43.274;26.924;2022-08-21T01:18:29;98218.09;;;23.79;62.49
37856;BME280;23694;43.274;26.924;2022-08-21T01:21:14;98223.44;;;23.79;62.21
37856;BME280;23694;43.274;26.924;2022-08-21T01:23:43;98217.88;;;23.81;62.34
37856;BME280;23694;43.274;26.924;2022-08-21T01:26:12;98220.97;;;23.78;62.66
37856;BME280;23694;43.274;26.924;2022-08-21T01:28:43;98216.44;;;23.78;62.99
37856;BME280;23694;43.274;26.924;2022-08-21T01:31:13;98212.53;;;23.81;62.52
37856;BME280;23694;43.274;26.924;2022-08-21T01:33:40;98218.09;;;23.79;63.24
37856;BME280;23694;43.274;26.924;2022-08-21T01:36:07;98218.91;;;23.80;62.77
37856;BME280;23694;43.274;26.924;2022-08-21T01:38:33;98218.28;;;23.84;62.91
37856;BME280;23694;43.274;26.924;2022-08-21T01:40:59;98210.28;;;23.78;63.24
37856;BME280;23694;43.274;26.924;2022-08-21T01:43:26;98205.13;;;23.76;63.54
37856;BME280;23694;43.274;26.924;2022-08-21T01:45:52;98202.66;;;23.94;62.81
37856;BME280;23694;43.274;26.924;2022-08-21T01:48:18;98203.47;;;24.01;62.71
37856;BME280;23694;43.274;26.924;2022-08-21T01:50:44;98196.88;;;24.04;62.57
37856;BME280;23694;43.274;26.924;2022-08-21T01:53:10;98198.13;;;24.08;62.00
37856;BME280;23694;43.274;26.924;2022-08-21T01:55:36;98196.88;;;24.11;62.04
37856;BME280;23694;43.274;26.924;2022-08-21T01:58:02;98203.47;;;24.15;62.08
37856;BME280;23694;43.274;26.924;2022-08-21T02:00:28;98201.81;;;24.20;61.90
37856;BME280;23694;43.274;26.924;2022-08-21T02:02:54;98194.38;;;24.22;61.80
37856;BME280;23694;43.274;26.924;2022-08-21T02:05:21;98191.94;;;24.14;61.99
37856;BME280;23694;43.274;26.924;2022-08-21T02:07:50;98190.50;;;24.18;62.28
37856;BME280;23694;43.274;26.924;2022-08-21T02:10:21;98192.75;;;24.15;61.91
37856;BME280;23694;43.274;26.924;2022-08-21T02:12:47;98192.97;;;24.13;61.89
37856;BME280;23694;43.274;26.924;2022-08-21T02:15:14;98197.09;;;24.16;61.78
37856;BME280;23694;43.274;26.924;2022-08-21T02:17:46;98189.03;;;24.22;61.37
37856;BME280;23694;43.274;26.924;2022-08-21T02:20:25;98203.44;;;24.21;61.28
37856;BME280;23694;43.274;26.924;2022-08-21T02:22:53;98195.41;;;24.21;61.58
37856;BME280;23694;43.274;26.924;2022-08-21T02:25:20;98196.25;;;24.15;61.80
37856;BME280;23694;43.274;26.924;2022-08-21T02:27:47;98193.00;;;23.87;62.57
37856;BME280;23694;43.274;26.924;2022-08-21T02:30:20;98206.78;;;23.77;63.08
37856;BME280;23694;43.274;26.924;2022-08-21T02:32:48;98201.22;;;23.85;62.45
37856;BME280;23694;43.274;26.924;2022-08-21T02:35:14;98201.19;;;23.98;62.19
37856;BME280;23694;43.274;26.924;2022-08-21T02:37:58;98202.03;;;23.99;62.29
37856;BME280;23694;43.274;26.924;2022-08-21T02:40:28;98200.19;;;24.06;61.99
37856;BME280;23694;43.274;26.924;2022-08-21T02:42:56;98209.44;;;24.10;61.58
37856;BME280;23694;43.274;26.924;2022-08-21T02:45:23;98195.03;;;24.18;61.36
37856;BME280;23694;43.274;26.924;2022-08-21T02:47:51;98204.47;;;24.20;61.05
37856;BME280;23694;43.274;26.924;2022-08-21T02:50:23;98199.34;;;24.19;61.26
37856;BME280;23694;43.274;26.924;2022-08-21T02:52:50;98201.41;;;24.17;61.19
37856;BME280;23694;43.274;26.924;2022-08-21T02:55:26;98202.66;;;24.14;61.30
37856;BME280;23694;43.274;26.924;2022-08-21T02:57:54;98208.00;;;24.14;61.04
37856;BME280;23694;43.274;26.924;2022-08-21T03:00:22;98198.13;;;24.15;61.26
37856;BME280;23694;43.274;26.924;2022-08-21T03:02:48;98207.81;;;24.09;61.77
37856;BME280;23694;43.274;26.924;2022-08-21T03:05:16;98203.28;;;23.83;63.68
37856;BME280;23694;43.274;26.924;2022-08-21T03:07:43;98204.72;;;23.73;65.75
37856;BME280;23694;43.274;26.924;2022-08-21T03:10:10;98210.50;;;23.56;66.44
37856;BME280;23694;43.274;26.924;2022-08-21T03:12:36;98212.28;;;23.36;68.51
37856;BME280;23694;43.274;26.924;2022-08-21T03:15:08;98209.34;;;23.04;70.47
37856;BME280;23694;43.274;26.924;2022-08-21T03:17:35;98205.28;;;22.74;71.96
37856;BME280;23694;43.274;26.924;2022-08-21T03:20:02;98207.50;;;22.57;73.46
37856;BME280;23694;43.274;26.924;2022-08-21T03:22:29;98203.97;;;22.50;74.09
37856;BME280;23694;43.274;26.924;2022-08-21T03:24:55;98201.94;;;22.52;74.13
37856;BME280;23694;43.274;26.924;2022-08-21T03:27:22;98206.28;;;22.60;74.01
37856;BME280;23694;43.274;26.924;2022-08-21T03:29:53;98203.84;;;22.71;72.89
37856;BME280;23694;43.274;26.924;2022-08-21T03:32:20;98201.22;;;22.78;70.50
37856;BME280;23694;43.274;26.924;2022-08-21T03:34:46;98198.63;;;22.91;68.72
37856;BME280;23694;43.274;26.924;2022-08-21T03:37:13;98195.59;;;23.07;67.97
37856;BME280;23694;43.274;26.924;2022-08-21T03:39:40;98192.31;;;23.19;67.50
37856;BME280;23694;43.274;26.924;2022-08-21T03:42:08;98199.53;;;23.38;66.45
37856;BME280;23694;43.274;26.924;2022-08-21T03:44:35;98191.97;;;23.42;65.89
37856;BME280;23694;43.274;26.924;2022-08-21T03:47:01;98191.13;;;23.54;65.85
37856;BME280;23694;43.274;26.924;2022-08-21T03:49:27;98193.22;;;23.79;64.43
37856;BME280;23694;43.274;26.924;2022-08-21T03:51:53;98184.34;;;24.11;63.19
37856;BME280;23694;43.274;26.924;2022-08-21T03:54:19;98193.13;;;24.38;61.85
37856;BME280;23694;43.274;26.924;2022-08-21T03:56:46;98195.94;;;24.56;60.83
37856;BME280;23694;43.274;26.924;2022-08-21T03:59:12;98196.69;;;24.83;60.19
37856;BME280;23694;43.274;26.924;2022-08-21T04:01:38;98200.56;;;25.25;58.49
37856;BME280;23694;43.274;26.924;2022-08-21T04:04:05;98184.19;;;25.65;57.14
37856;BME280;23694;43.274;26.924;2022-08-21T04:06:32;98189.25;;;26.05;55.39
37856;BME280;23694;43.274;26.924;2022-08-21T04:08:58;98195.84;;;26.45;54.22
37856;BME280;23694;43.274;26.924;2022-08-21T04:11:24;98189.31;;;26.90;53.05
37856;BME280;23694;43.274;26.924;2022-08-21T04:13:50;98189.75;;;27.35;50.87
37856;BME280;23694;43.274;26.924;2022-08-21T04:16:17;98189.13;;;27.74;50.22
37856;BME280;23694;43.274;26.924;2022-08-21T04:18:43;98196.88;;;28.06;50.45
37856;BME280;23694;43.274;26.924;2022-08-21T04:21:11;98202.94;;;28.48;50.00
37856;BME280;23694;43.274;26.924;2022-08-21T04:23:37;98199.88;;;28.56;49.97
37856;BME280;23694;43.274;26.924;2022-08-21T04:26:03;98206.75;;;28.87;48.94
37856;BME280;23694;43.274;26.924;2022-08-21T04:28:29;98214.81;;;29.16;48.29
37856;BME280;23694;43.274;26.924;2022-08-21T04:30:56;98209.88;;;29.70;46.56
37856;BME280;23694;43.274;26.924;2022-08-21T04:33:22;98210.53;;;29.93;46.06
37856;BME280;23694;43.274;26.924;2022-08-21T04:35:50;98223.47;;;30.47;44.24
37856;BME280;23694;43.274;26.924;2022-08-21T04:38:16;98222.25;;;30.98;42.36
37856;BME280;23694;43.274;26.924;2022-08-21T04:40:42;98223.97;;;31.58;40.63
37856;BME280;23694;43.274;26.924;2022-08-21T04:43:10;98218.16;;;32.08;39.27
37856;BME280;23694;43.274;26.924;2022-08-21T04:45:40;98224.34;;;32.41;38.67
37856;BME280;23694;43.274;26.924;2022-08-21T04:48:09;98229.50;;;33.00;37.21
37856;BME280;23694;43.274;26.924;2022-08-21T04:51:30;98229.38;;;33.37;36.56
37856;BME280;23694;43.274;26.924;2022-08-21T04:53:51;98231.56;;;33.55;36.46
37856;BME280;23694;43.274;26.924;2022-08-21T04:56:42;98234.75;;;33.27;36.57
37856;BME280;23694;43.274;26.924;2022-08-21T04:59:15;98237.47;;;33.22;37.65
37856;BME280;23694;43.274;26.924;2022-08-21T05:01:43;98225.03;;;33.51;37.45
37856;BME280;23694;43.274;26.924;2022-08-21T05:04:16;98228.88;;;33.96;36.36
37856;BME280;23694;43.274;26.924;2022-08-21T05:06:45;98225.03;;;34.32;35.52
37856;BME280;23694;43.274;26.924;2022-08-21T05:09:14;98229.69;;;34.07;35.64
37856;BME280;23694;43.274;26.924;2022-08-21T05:11:42;98221.78;;;33.80;34.90
37856;BME280;23694;43.274;26.924;2022-08-21T05:14:10;98225.34;;;34.06;34.89
37856;BME280;23694;43.274;26.924;2022-08-21T05:16:37;98218.75;;;34.52;33.91
37856;BME280;23694;43.274;26.924;2022-08-21T05:19:05;98223.66;;;34.50;34.13
37856;BME280;23694;43.274;26.924;2022-08-21T05:21:36;98217.41;;;35.09;32.55
37856;BME280;23694;43.274;26.924;2022-08-21T05:24:03;98213.50;;;34.71;33.43
37856;BME280;23694;43.274;26.924;2022-08-21T05:26:29;98211.97;;;34.29;34.78
37856;BME280;23694;43.274;26.924;2022-08-21T05:28:56;98212.56;;;34.11;34.62
37856;BME280;23694;43.274;26.924;2022-08-21T05:31:22;98221.78;;;33.64;35.12
37856;BME280;23694;43.274;26.924;2022-08-21T05:33:48;98220.53;;;32.42;37.54
37856;BME280;23694;43.274;26.924;2022-08-21T05:36:14;98224.28;;;32.31;38.13
37856;BME280;23694;43.274;26.924;2022-08-21T05:38:40;98223.06;;;31.47;39.93
37856;BME280;23694;43.274;26.924;2022-08-21T05:41:07;98223.47;;;32.30;38.71
37856;BME280;23694;43.274;26.924;2022-08-21T05:43:33;98217.28;;;32.40;37.48
37856;BME280;23694;43.274;26.924;2022-08-21T05:46:03;98222.47;;;32.46;37.42
37856;BME280;23694;43.274;26.924;2022-08-21T05:48:30;98218.84;;;32.26;38.02
37856;BME280;23694;43.274;26.924;2022-08-21T05:50:57;98224.09;;;31.41;39.39
37856;BME280;23694;43.274;26.924;2022-08-21T05:53:24;98227.28;;;30.51;41.85
37856;BME280;23694;43.274;26.924;2022-08-21T05:55:51;98226.00;;;29.98;43.43
37856;BME280;23694;43.274;26.924;2022-08-21T05:58:20;98214.84;;;29.78;43.93
37856;BME280;23694;43.274;26.924;2022-08-21T06:00:47;98227.91;;;29.24;45.36
37856;BME280;23694;43.274;26.924;2022-08-21T06:03:18;98220.22;;;28.87;46.87
37856;BME280;23694;43.274;26.924;2022-08-21T06:05:45;98223.72;;;28.88;46.23
37856;BME280;23694;43.274;26.924;2022-08-21T06:08:12;98222.72;;;28.54;47.89
37856;BME280;23694;43.274;26.924;2022-08-21T06:10:38;98221.66;;;29.07;46.86
37856;BME280;23694;43.274;26.924;2022-08-21T06:13:04;98226.56;;;28.69;47.21
37856;BME280;23694;43.274;26.924;2022-08-21T06:15:31;98230.75;;;28.89;47.36
37856;BME280;23694;43.274;26.924;2022-08-21T06:17:57;98229.94;;;28.88;47.22
37856;BME280;23694;43.274;26.924;2022-08-21T06:20:23;98235.28;;;28.36;47.33
37856;BME280;23694;43.274;26.924;2022-08-21T06:22:49;98231.66;;;28.07;49.19
37856;BME280;23694;43.274;26.924;2022-08-21T06:25:15;98233.03;;;27.98;49.89
37856;BME280;23694;43.274;26.924;2022-08-21T06:27:41;98239.03;;;27.59;51.03
37856;BME280;23694;43.274;26.924;2022-08-21T06:30:08;98235.91;;;27.62;50.95
37856;BME280;23694;43.274;26.924;2022-08-21T06:32:34;98235.56;;;27.70;51.08
37856;BME280;23694;43.274;26.924;2022-08-21T06:35:00;98237.44;;;27.69;50.97
37856;BME280;23694;43.274;26.924;2022-08-21T06:37:26;98233.81;;;27.75;50.24
37856;BME280;23694;43.274;26.924;2022-08-21T06:39:53;98231.16;;;27.45;51.04
37856;BME280;23694;43.274;26.924;2022-08-21T06:42:19;98232.31;;;27.08;52.10
37856;BME280;23694;43.274;26.924;2022-08-21T06:44:45;98232.72;;;27.23;52.00
37856;BME280;23694;43.274;26.924;2022-08-21T06:47:11;98242.94;;;27.63;50.11
37856;BME280;23694;43.274;26.924;2022-08-21T06:49:37;98246.81;;;27.78;49.83
37856;BME280;23694;43.274;26.924;2022-08-21T06:52:03;98241.66;;;27.65;50.12
37856;BME280;23694;43.274;26.924;2022-08-21T06:54:33;98247.88;;;27.77;49.75
37856;BME280;23694;43.274;26.924;2022-08-21T06:56:59;98237.97;;;28.36;48.50
37856;BME280;23694;43.274;26.924;2022-08-21T06:59:25;98242.84;;;27.81;49.44
37856;BME280;23694;43.274;26.924;2022-08-21T07:01:51;98232.53;;;27.78;49.85
37856;BME280;23694;43.274;26.924;2022-08-21T07:04:17;98239.00;;;28.12;49.08
37856;BME280;23694;43.274;26.924;2022-08-21T07:06:44;98238.72;;;28.95;46.82
37856;BME280;23694;43.274;26.924;2022-08-21T07:09:10;98237.78;;;29.18;45.70
37856;BME280;23694;43.274;26.924;2022-08-21T07:11:36;98231.16;;;29.38;45.92
37856;BME280;23694;43.274;26.924;2022-08-21T07:14:03;98229.22;;;29.21;46.13
37856;BME280;23694;43.274;26.924;2022-08-21T07:16:29;98227.94;;;29.69;44.82
37856;BME280;23694;43.274;26.924;2022-08-21T07:18:55;98228.25;;;29.73;43.91
37856;BME280;23694;43.274;26.924;2022-08-21T07:21:21;98222.25;;;29.37;44.81
37856;BME280;23694;43.274;26.924;2022-08-21T07:23:49;98220.16;;;28.99;45.91
37856;BME280;23694;43.274;26.924;2022-08-21T07:26:19;98216.59;;;29.10;46.18
37856;BME280;23694;43.274;26.924;2022-08-21T07:28:47;98209.63;;;29.54;44.74
37856;BME280;23694;43.274;26.924;2022-08-21T07:31:17;98216.66;;;29.27;45.50
37856;BME280;23694;43.274;26.924;2022-08-21T07:33:43;98209.09;;;29.41;44.66
37856;BME280;23694;43.274;26.924;2022-08-21T07:36:10;98211.03;;;29.00;46.13
37856;BME280;23694;43.274;26.924;2022-08-21T07:38:37;98205.41;;;29.01;45.50
37856;BME280;23694;43.274;26.924;2022-08-21T07:41:16;98205.06;;;28.98;46.26
37856;BME280;23694;43.274;26.924;2022-08-21T07:43:42;98202.31;;;29.10;45.31
37856;BME280;23694;43.274;26.924;2022-08-21T07:46:09;98194.22;;;29.10;45.70
37856;BME280;23694;43.274;26.924;2022-08-21T07:48:36;98193.00;;;29.17;45.31
37856;BME280;23694;43.274;26.924;2022-08-21T07:51:07;98193.38;;;28.81;46.24
37856;BME280;23694;43.274;26.924;2022-08-21T07:53:34;98193.75;;;28.84;46.70
37856;BME280;23694;43.274;26.924;2022-08-21T07:56:01;98189.50;;;29.17;45.76
37856;BME280;23694;43.274;26.924;2022-08-21T07:58:27;98187.63;;;29.17;44.57
37856;BME280;23694;43.274;26.924;2022-08-21T08:00:53;98181.69;;;29.03;44.97
37856;BME280;23694;43.274;26.924;2022-08-21T08:03:19;98184.00;;;29.40;44.58
37856;BME280;23694;43.274;26.924;2022-08-21T08:05:45;98178.22;;;29.48;43.18
37856;BME280;23694;43.274;26.924;2022-08-21T08:08:11;98182.78;;;29.64;42.73
37856;BME280;23694;43.274;26.924;2022-08-21T08:10:38;98180.75;;;29.72;42.47
37856;BME280;23694;43.274;26.924;2022-08-21T08:13:04;98177.94;;;29.83;41.92
37856;BME280;23694;43.274;26.924;2022-08-21T08:15:31;98171.59;;;29.73;41.28
37856;BME280;23694;43.274;26.924;2022-08-21T08:17:57;98169.97;;;30.27;40.11
37856;BME280;23694;43.274;26.924;2022-08-21T08:20:24;98174.25;;;30.45;41.07
37856;BME280;23694;43.274;26.924;2022-08-21T08:22:53;98173.34;;;30.78;39.51
37856;BME280;23694;43.274;26.924;2022-08-21T08:25:21;98172.41;;;30.07;40.59
37856;BME280;23694;43.274;26.924;2022-08-21T08:27:49;98162.88;;;30.21;40.29
37856;BME280;23694;43.274;26.924;2022-08-21T08:30:17;98164.47;;;30.39;40.29
37856;BME280;23694;43.274;26.924;2022-08-21T08:32:45;98159.09;;;30.61;39.69
37856;BME280;23694;43.274;26.924;2022-08-21T08:35:11;98161.88;;;30.49;40.26
37856;BME280;23694;43.274;26.924;2022-08-21T08:37:38;98157.94;;;30.56;39.42
37856;BME280;23694;43.274;26.924;2022-08-21T08:40:11;98167.00;;;29.73;41.14
37856;BME280;23694;43.274;26.924;2022-08-21T08:42:38;98153.44;;;29.51;40.56
37856;BME280;23694;43.274;26.924;2022-08-21T08:45:15;98153.28;;;30.30;39.15
37856;BME280;23694;43.274;26.924;2022-08-21T08:47:45;98148.63;;;30.91;38.23
37856;BME280;23694;43.274;26.924;2022-08-21T08:50:24;98159.31;;;30.81;37.87
37856;BME280;23694;43.274;26.924;2022-08-21T08:53:06;98154.69;;;30.76;37.74
37856;BME280;23694;43.274;26.924;2022-08-21T08:55:40;98141.00;;;30.88;37.90
37856;BME280;23694;43.274;26.924;2022-08-21T08:58:13;98140.91;;;31.05;37.45
37856;BME280;23694;43.274;26.924;2022-08-21T09:00:50;98147.63;;;31.24;37.37
37856;BME280;23694;43.274;26.924;2022-08-21T09:03:17;98141.41;;;31.24;35.48
37856;BME280;23694;43.274;26.924;2022-08-21T09:06:01;98135.41;;;31.53;35.90
37856;BME280;23694;43.274;26.924;2022-08-21T09:11:34;98120.94;;;31.11;37.56
37856;BME280;23694;43.274;26.924;2022-08-21T09:25:56;98115.84;;;31.41;36.45
37856;BME280;23694;43.274;26.924;2022-08-21T09:28:24;98114.22;;;30.86;37.38
37856;BME280;23694;43.274;26.924;2022-08-21T09:30:55;98114.16;;;31.08;36.46
37856;BME280;23694;43.274;26.924;2022-08-21T09:33:21;98115.34;;;31.49;35.81
37856;BME280;23694;43.274;26.924;2022-08-21T09:35:54;98103.66;;;31.76;35.16
37856;BME280;23694;43.274;26.924;2022-08-21T09:38:33;98103.13;;;31.79;35.01
37856;BME280;23694;43.274;26.924;2022-08-21T09:41:05;98106.34;;;31.12;35.37
37856;BME280;23694;43.274;26.924;2022-08-21T09:43:33;98096.56;;;31.33;35.59
37856;BME280;23694;43.274;26.924;2022-08-21T09:46:09;98099.00;;;32.19;33.93
37856;BME280;23694;43.274;26.924;2022-08-21T09:48:45;98093.00;;;32.74;32.75
37856;BME280;23694;43.274;26.924;2022-08-21T09:51:16;98087.69;;;33.35;31.96
37856;BME280;23694;43.274;26.924;2022-08-21T09:53:47;98090.59;;;33.79;31.44
37856;BME280;23694;43.274;26.924;2022-08-21T09:56:57;98097.34;;;34.07;30.07
37856;BME280;23694;43.274;26.924;2022-08-21T09:59:43;98084.16;;;33.45;31.89
37856;BME280;23694;43.274;26.924;2022-08-21T10:02:28;98087.00;;;32.62;33.22
37856;BME280;23694;43.274;26.924;2022-08-21T10:05:00;98084.50;;;32.45;30.81
37856;BME280;23694;43.274;26.924;2022-08-21T10:07:29;98086.28;;;32.92;31.25
37856;BME280;23694;43.274;26.924;2022-08-21T10:10:01;98076.28;;;33.33;31.08
37856;BME280;23694;43.274;26.924;2022-08-21T10:18:15;98058.09;;;33.44;30.93
37856;BME280;23694;43.274;26.924;2022-08-21T10:27:06;98059.41;;;32.85;30.34
37856;BME280;23694;43.274;26.924;2022-08-21T10:29:50;98063.31;;;32.27;29.05
37856;BME280;23694;43.274;26.924;2022-08-21T10:35:29;98058.97;;;32.26;31.30
37856;BME280;23694;43.274;26.924;2022-08-21T10:40:54;98054.25;;;32.89;31.32
37856;BME280;23694;43.274;26.924;2022-08-21T10:43:37;98059.56;;;32.48;30.53
37856;BME280;23694;43.274;26.924;2022-08-21T10:46:24;98047.91;;;32.42;31.46
37856;BME280;23694;43.274;26.924;2022-08-21T10:48:59;98047.72;;;32.69;32.03
37856;BME280;23694;43.274;26.924;2022-08-21T10:51:35;98051.25;;;31.97;32.36
37856;BME280;23694;43.274;26.924;2022-08-21T10:54:12;98039.22;;;32.40;31.70
37856;BME280;23694;43.274;26.924;2022-08-21T10:56:43;98033.91;;;33.01;31.13
37856;BME280;23694;43.274;26.924;2022-08-21T10:59:28;98021.41;;;33.51;30.79
37856;BME280;23694;43.274;26.924;2022-08-21T11:07:30;98028.59;;;34.12;29.61
37856;BME280;23694;43.274;26.924;2022-08-21T11:10:03;98023.88;;;33.27;30.66
37856;BME280;23694;43.274;26.924;2022-08-21T11:12:47;98010.88;;;32.94;31.61
37856;BME280;23694;43.274;26.924;2022-08-21T11:15:27;98011.63;;;32.54;32.53
37856;BME280;23694;43.274;26.924;2022-08-21T11:18:04;98012.66;;;32.32;32.63
37856;BME280;23694;43.274;26.924;2022-08-21T11:20:56;98014.22;;;32.18;32.42
37856;BME280;23694;43.274;26.924;2022-08-21T11:23:31;98010.78;;;31.75;32.77
37856;BME280;23694;43.274;26.924;2022-08-21T11:26:08;98005.56;;;31.64;33.78
37856;BME280;23694;43.274;26.924;2022-08-21T11:28:46;98002.47;;;31.45;34.06
37856;BME280;23694;43.274;26.924;2022-08-21T11:37:41;97992.13;;;32.57;31.46
37856;BME280;23694;43.274;26.924;2022-08-21T11:40:09;97997.00;;;32.55;31.42
37856;BME280;23694;43.274;26.924;2022-08-21T11:43:01;97978.84;;;32.75;30.74
37856;BME280;23694;43.274;26.924;2022-08-21T11:51:06;97962.78;;;32.33;30.74
37856;BME280;23694;43.274;26.924;2022-08-21T11:53:40;97966.09;;;32.71;30.07
37856;BME280;23694;43.274;26.924;2022-08-21T11:56:27;97952.28;;;32.57;29.72
37856;BME280;23694;43.274;26.924;2022-08-21T11:59:00;97953.00;;;32.22;30.07
37856;BME280;23694;43.274;26.924;2022-08-21T12:01:32;97947.56;;;32.12;29.20
37856;BME280;23694;43.274;26.924;2022-08-21T12:04:10;97947.34;;;32.44;29.20
37856;BME280;23694;43.274;26.924;2022-08-21T12:06:42;97936.25;;;33.01;29.10
37856;BME280;23694;43.274;26.924;2022-08-21T12:09:31;97930.38;;;33.74;28.16
37856;BME280;23694;43.274;26.924;2022-08-21T12:12:05;97938.38;;;33.40;28.47
37856;BME280;23694;43.274;26.924;2022-08-21T12:14:44;97929.47;;;33.09;28.87
37856;BME280;23694;43.274;26.924;2022-08-21T12:17:21;97923.00;;;32.90;29.03
37856;BME280;23694;43.274;26.924;2022-08-21T12:22:51;97912.63;;;33.27;28.40
37856;BME280;23694;43.274;26.924;2022-08-21T12:25:19;97905.59;;;33.11;28.26
37856;BME280;23694;43.274;26.924;2022-08-21T12:33:02;97899.94;;;32.87;27.96
37856;BME280;23694;43.274;26.924;2022-08-21T12:35:37;97900.19;;;32.50;28.90
37856;BME280;23694;43.274;26.924;2022-08-21T12:38:23;97899.38;;;32.39;28.63
37856;BME280;23694;43.274;26.924;2022-08-21T12:40:56;97899.66;;;32.38;28.60
37856;BME280;23694;43.274;26.924;2022-08-21T12:43:29;97898.84;;;32.73;28.25
37856;BME280;23694;43.274;26.924;2022-08-21T12:45:57;97892.88;;;33.01;27.87
37856;BME280;23694;43.274;26.924;2022-08-21T12:48:31;97894.72;;;33.11;27.71
37856;BME280;23694;43.274;26.924;2022-08-21T12:51:09;97889.94;;;33.67;26.99
37856;BME280;23694;43.274;26.924;2022-08-21T12:56:15;97901.06;;;33.71;26.29
37856;BME280;23694;43.274;26.924;2022-08-21T12:58:47;97891.47;;;33.19;27.21
37856;BME280;23694;43.274;26.924;2022-08-21T13:01:24;97895.06;;;32.89;27.72
37856;BME280;23694;43.274;26.924;2022-08-21T13:03:54;97887.19;;;32.72;28.45
37856;BME280;23694;43.274;26.924;2022-08-21T13:06:22;97891.19;;;33.31;27.62
37856;BME280;23694;43.274;26.924;2022-08-21T13:08:54;97884.81;;;33.61;26.93
37856;BME280;23694;43.274;26.924;2022-08-21T13:11:23;97893.91;;;33.36;27.17
37856;BME280;23694;43.274;26.924;2022-08-21T13:13:51;97894.13;;;33.45;27.35
37856;BME280;23694;43.274;26.924;2022-08-21T13:16:27;97892.56;;;33.13;27.04
37856;BME280;23694;43.274;26.924;2022-08-21T13:19:02;97880.91;;;33.13;26.90
37856;BME280;23694;43.274;26.924;2022-08-21T13:21:38;97887.16;;;33.18;26.66
37856;BME280;23694;43.274;26.924;2022-08-21T13:26:42;97882.59;;;32.78;27.31
37856;BME280;23694;43.274;26.924;2022-08-21T13:29:11;97880.63;;;33.14;27.33
37856;BME280;23694;43.274;26.924;2022-08-21T13:31:39;97882.69;;;33.53;26.81
37856;BME280;23694;43.274;26.924;2022-08-21T13:34:10;97880.66;;;33.89;25.97
37856;BME280;23694;43.274;26.924;2022-08-21T13:36:39;97880.09;;;33.17;31.05
37856;BME280;23694;43.274;26.924;2022-08-21T13:39:17;97873.38;;;32.84;32.69
37856;BME280;23694;43.274;26.924;2022-08-21T13:41:46;97870.31;;;31.89;34.41
37856;BME280;23694;43.274;26.924;2022-08-21T13:46:44;97872.16;;;31.78;34.92
37856;BME280;23694;43.274;26.924;2022-08-21T13:49:13;97884.63;;;31.74;35.28
37856;BME280;23694;43.274;26.924;2022-08-21T13:51:41;97888.00;;;31.44;36.13
37856;BME280;23694;43.274;26.924;2022-08-21T13:54:24;97887.59;;;31.15;36.69
37856;BME280;23694;43.274;26.924;2022-08-21T13:56:51;97889.75;;;30.76;36.87
37856;BME280;23694;43.274;26.924;2022-08-21T13:59:44;97889.25;;;30.79;36.96
37856;BME280;23694;43.274;26.924;2022-08-21T14:02:19;97877.09;;;30.50;38.16
37856;BME280;23694;43.274;26.924;2022-08-21T14:05:31;97882.16;;;30.41;39.30
37856;BME280;23694;43.274;26.924;2022-08-21T14:08:04;97876.97;;;30.35;39.92
37856;BME280;23694;43.274;26.924;2022-08-21T14:10:30;97864.94;;;30.52;39.22
37856;BME280;23694;43.274;26.924;2022-08-21T14:13:06;97871.88;;;30.38;39.77